createdAt,value
2022-10-05T00:00:13.354Z,98944.63
2022-10-05T00:03:12.121Z,98939.69
2022-10-05T00:05:59.455Z,98938.84
2022-10-05T00:08:49.334Z,98937.28
2022-10-05T00:11:38.453Z,98926.00
2022-10-05T00:14:32.819Z,98925.28
2022-10-05T00:17:23.565Z,98921.78
2022-10-05T00:20:22.492Z,98916.59
2022-10-05T00:23:19.263Z,98928.25
2022-10-05T00:26:17.551Z,98916.00
2022-10-05T00:29:22.950Z,98914.31
2022-10-05T00:32:13.451Z,98906.63
2022-10-05T00:35:01.118Z,98907.69
2022-10-05T00:37:56.193Z,98905.06
2022-10-05T00:41:02.993Z,98913.09
2022-10-05T00:44:27.822Z,98919.44
2022-10-05T00:47:44.530Z,98923.19
2022-10-05T00:51:11.834Z,98927.72
2022-10-05T00:54:23.270Z,98917.38
2022-10-05T00:57:34.925Z,98914.13
2022-10-05T01:00:27.933Z,98901.03
2022-10-05T01:03:28.279Z,98905.81
2022-10-05T01:06:30.324Z,98912.19
2022-10-05T01:09:34.268Z,98896.69
2022-10-05T01:12:33.011Z,98883.72
2022-10-05T01:15:35.512Z,98880.44
2022-10-05T01:18:39.046Z,98887.78
2022-10-05T01:21:29.967Z,98888.81
2022-10-05T01:24:45.394Z,98897.06
2022-10-05T01:27:58.607Z,98903.41
2022-10-05T01:30:58.254Z,98908.91
2022-10-05T01:33:56.233Z,98903.03
2022-10-05T01:36:57.777Z,98891.84
2022-10-05T01:39:58.193Z,98892.91
2022-10-05T01:43:04.874Z,98890.59
2022-10-05T01:46:08.069Z,98898.63
2022-10-05T01:49:18.829Z,98910.31
2022-10-05T01:52:26.761Z,98906.22
2022-10-05T01:55:29.843Z,98905.53
2022-10-05T01:58:33.368Z,98913.66
2022-10-05T02:01:32.114Z,98909.41
2022-10-05T02:04:59.953Z,98919.25
2022-10-05T02:07:46.802Z,98910.72
2022-10-05T02:10:41.746Z,98910.22
2022-10-05T02:13:38.803Z,98911.13
2022-10-05T02:16:39.030Z,98899.03
2022-10-05T02:19:36.051Z,98885.97
2022-10-05T02:22:31.818Z,98879.94
2022-10-05T02:25:24.744Z,98878.25
2022-10-05T02:28:20.293Z,98881.66
2022-10-05T02:31:13.775Z,98871.81
2022-10-05T02:34:22.570Z,98875.41
2022-10-05T02:37:34.253Z,98876.47
2022-10-05T02:40:37.957Z,98874.78
2022-10-05T02:43:42.825Z,98877.63
2022-10-05T02:46:48.011Z,98877.03
2022-10-05T02:49:48.781Z,98882.50
2022-10-05T02:52:48.495Z,98880.84
2022-10-05T02:55:47.822Z,98875.78
2022-10-05T02:58:47.684Z,98879.56
2022-10-05T03:01:49.598Z,98876.94
2022-10-05T03:04:52.126Z,98883.16
2022-10-05T03:07:49.436Z,98870.94
2022-10-05T03:10:48.751Z,98872.84
2022-10-05T03:13:51.720Z,98869.47
2022-10-05T03:17:01.613Z,98866.09
2022-10-05T03:20:21.751Z,98856.63
2022-10-05T03:23:26.731Z,98857.66
2022-10-05T03:26:31.941Z,98863.16
2022-10-05T03:29:36.614Z,98858.09
2022-10-05T03:32:46.953Z,98857.88
2022-10-05T03:35:52.212Z,98850.72
2022-10-05T03:38:53.685Z,98854.44
2022-10-05T03:41:49.707Z,98851.16
2022-10-05T03:44:52.435Z,98851.25
2022-10-05T03:47:52.614Z,98849.69
2022-10-05T03:51:03.121Z,98845.38
2022-10-05T03:53:58.660Z,98842.00
2022-10-05T03:56:53.439Z,98835.06
2022-10-05T03:59:52.591Z,98836.19
2022-10-05T04:02:51.697Z,98834.53
2022-10-05T04:05:47.562Z,98834.63
2022-10-05T04:08:48.084Z,98833.06
2022-10-05T04:11:43.158Z,98831.38
2022-10-05T04:14:38.950Z,98828.00
2022-10-05T04:17:39.202Z,98830.75
2022-10-05T04:20:36.561Z,98837.09
2022-10-05T04:23:40.621Z,98837.09
2022-10-05T04:26:41.719Z,98849.28
2022-10-05T04:29:39.218Z,98840.66
2022-10-05T04:32:45.546Z,98842.56
2022-10-05T04:36:10.698Z,98847.09
2022-10-05T04:39:18.845Z,98840.16
2022-10-05T04:42:23.059Z,98846.44
2022-10-05T04:45:37.794Z,98845.09
2022-10-05T04:48:54.162Z,98863.63
2022-10-05T04:51:56.295Z,98859.19
2022-10-05T04:55:02.196Z,98853.19
2022-10-05T04:58:03.347Z,98846.34
2022-10-05T05:01:10.332Z,98842.97
2022-10-05T05:04:31.784Z,98849.28
2022-10-05T05:07:42.200Z,98849.41
2022-10-05T05:11:13.760Z,98848.75
2022-10-05T05:14:47.737Z,98847.19
2022-10-05T05:18:07.695Z,98847.41
2022-10-05T05:21:09.654Z,98847.50
2022-10-05T05:24:10.498Z,98851.09
2022-10-05T05:27:26.939Z,98859.84
2022-10-05T05:30:23.230Z,98853.72
2022-10-05T05:33:24.237Z,98866.13
2022-10-05T05:36:48.828Z,98864.44
2022-10-05T05:39:52.844Z,98869.72
2022-10-05T05:42:54.690Z,98872.34
2022-10-05T05:45:51.299Z,98875.06
2022-10-05T05:48:44.641Z,98887.38
2022-10-05T05:51:41.204Z,98876.84
2022-10-05T05:54:43.318Z,98882.03
2022-10-05T05:57:38.603Z,98877.59
2022-10-05T06:00:35.683Z,98875.63
2022-10-05T06:03:34.551Z,98865.59
2022-10-05T06:06:28.069Z,98877.09
2022-10-05T06:09:24.492Z,98879.00
2022-10-05T06:12:20.889Z,98882.88
2022-10-05T06:15:31.879Z,98894.34
2022-10-05T06:18:28.296Z,98905.97
2022-10-05T06:21:25.651Z,98909.31
2022-10-05T06:24:21.400Z,98921.09
2022-10-05T06:27:26.516Z,98922.81
2022-10-05T06:30:18.204Z,98925.09
2022-10-05T06:33:30.242Z,98936.03
2022-10-05T06:36:41.203Z,98937.94
2022-10-05T06:40:01.461Z,98941.81
2022-10-05T06:43:16.429Z,98939.97
2022-10-05T06:46:15.619Z,98943.06
2022-10-05T06:49:18.769Z,98955.63
2022-10-05T06:52:21.102Z,98952.69
2022-10-05T06:55:21.753Z,98950.75
2022-10-05T06:58:38.461Z,98953.47
2022-10-05T07:01:49.996Z,98955.75
2022-10-05T07:05:22.551Z,98959.66
2022-10-05T07:08:16.876Z,98957.97
2022-10-05T07:11:19.088Z,98966.84
2022-10-05T07:14:36.569Z,98963.63
2022-10-05T07:17:45.694Z,98959.91
2022-10-05T07:20:49.022Z,98967.56
2022-10-05T07:23:58.618Z,98969.94
2022-10-05T07:26:54.851Z,98965.34
2022-10-05T07:29:54.372Z,98974.94
2022-10-05T07:32:56.688Z,98979.03
2022-10-05T07:36:14.428Z,98974.88
2022-10-05T07:39:14.048Z,98981.13
2022-10-05T07:42:19.047Z,98979.38
2022-10-05T07:45:28.230Z,98972.94
2022-10-05T07:48:22.052Z,98972.72
2022-10-05T07:51:25.178Z,98974.34
2022-10-05T07:54:22.922Z,98980.28
2022-10-05T07:57:26.121Z,98987.22
2022-10-05T08:00:21.302Z,98989.09
2022-10-05T08:03:15.513Z,98987.31
2022-10-05T08:06:06.641Z,98986.50
2022-10-05T08:08:58.140Z,98986.69
2022-10-05T08:11:57.569Z,98976.09
2022-10-05T08:14:52.550Z,98981.91
2022-10-05T08:17:51.654Z,98987.94
2022-10-05T08:20:47.504Z,98982.53
2022-10-05T08:23:43.018Z,98972.88
2022-10-05T08:26:46.827Z,98970.13
2022-10-05T08:29:40.088Z,98977.81
2022-10-05T08:32:30.770Z,98969.88
2022-10-05T08:35:29.847Z,98968.88
2022-10-05T08:38:20.910Z,98972.66
2022-10-05T08:41:44.042Z,98966.91
2022-10-05T08:45:06.467Z,98967.75
2022-10-05T08:48:35.959Z,98968.66
2022-10-05T08:51:45.797Z,98966.09
2022-10-05T08:54:42.820Z,98961.56
2022-10-05T08:57:51.196Z,98956.59
2022-10-05T09:00:50.030Z,98955.84
2022-10-05T09:04:12.171Z,98955.84
2022-10-05T09:07:10.819Z,98950.06
2022-10-05T09:10:59.760Z,98940.19
2022-10-05T09:14:24.650Z,98932.56
2022-10-05T09:17:39.950Z,98929.84
2022-10-05T09:20:38.842Z,98914.25
2022-10-05T09:23:39.814Z,98906.78
2022-10-05T09:26:47.676Z,98891.34
2022-10-05T09:30:05.511Z,98893.63
2022-10-05T09:33:28.106Z,98883.88
2022-10-05T09:37:03.875Z,98875.88
2022-10-05T09:40:26.926Z,98874.09
2022-10-05T09:43:44.262Z,98868.59
2022-10-05T09:46:59.767Z,98856.03
2022-10-05T09:50:29.168Z,98856.66
2022-10-05T09:53:40.796Z,98852.91
2022-10-05T09:57:07.642Z,98843.31
2022-10-05T10:00:26.043Z,98836.72
2022-10-05T10:03:58.555Z,98832.59
2022-10-05T10:07:19.014Z,98827.22
2022-10-05T10:10:41.414Z,98822.41
2022-10-05T10:14:09.838Z,98819.81
2022-10-05T10:17:36.805Z,98812.28
2022-10-05T10:20:42.037Z,98813.34
2022-10-05T10:23:55.037Z,98819.84
2022-10-05T10:27:01.074Z,98812.53
2022-10-05T10:30:36.417Z,98802.47
2022-10-05T10:34:00.232Z,98796.22
2022-10-05T10:37:11.520Z,98800.16
2022-10-05T10:40:25.022Z,98784.78
2022-10-05T10:43:40.014Z,98785.75
2022-10-05T10:46:36.873Z,98776.59
2022-10-05T10:49:48.711Z,98774.81
2022-10-05T10:53:00.670Z,98766.75
2022-10-05T10:56:02.527Z,98769.69
2022-10-05T10:59:30.717Z,98775.44
2022-10-05T11:02:53.873Z,98768.13
2022-10-05T11:06:28.040Z,98773.84
2022-10-05T11:09:40.869Z,98762.41
2022-10-05T11:13:09.294Z,98745.16
2022-10-05T11:16:24.502Z,98746.19
2022-10-05T11:20:02.880Z,98742.88
2022-10-05T11:22:59.922Z,98732.47
2022-10-05T11:26:32.189Z,98731.63
2022-10-05T11:30:14.639Z,98740.06
2022-10-05T11:33:35.033Z,98721.56
2022-10-05T11:37:00.793Z,98721.63
2022-10-05T11:40:36.470Z,98717.81
2022-10-05T11:44:04.507Z,98713.09
2022-10-05T11:47:04.182Z,98716.38
2022-10-05T11:50:09.633Z,98719.03
2022-10-05T11:53:11.403Z,98705.63
2022-10-05T11:56:32.731Z,98699.16
2022-10-05T11:59:30.745Z,98700.16
2022-10-05T12:02:59.893Z,98693.50
2022-10-05T12:06:12.761Z,98692.19
2022-10-05T12:09:12.705Z,98691.22
2022-10-05T12:12:16.472Z,98688.50
2022-10-05T12:15:21.080Z,98689.91
2022-10-05T12:18:16.565Z,98689.03
2022-10-05T12:21:16.765Z,98681.03
2022-10-05T12:27:06.872Z,98691.66
2022-10-05T12:30:07.384Z,98692.63
2022-10-05T12:33:09.498Z,98691.56
2022-10-05T12:36:03.691Z,98693.03
2022-10-05T12:38:57.920Z,98695.97
2022-10-05T12:41:54.153Z,98692.59
2022-10-05T12:45:03.858Z,98688.56
2022-10-05T12:48:13.216Z,98687.81
2022-10-05T12:51:19.753Z,98688.03
2022-10-05T12:54:26.791Z,98679.91
2022-10-05T12:57:31.571Z,98685.69
2022-10-05T13:00:27.142Z,98682.84
2022-10-05T13:03:29.311Z,98683.66
2022-10-05T13:06:31.170Z,98686.13
2022-10-05T13:09:25.439Z,98681.78
2022-10-05T13:12:26.092Z,98678.22
2022-10-05T13:15:22.264Z,98672.28
2022-10-05T13:18:26.733Z,98670.41
2022-10-05T13:21:20.885Z,98665.22
2022-10-05T13:24:15.159Z,98659.94
2022-10-05T13:27:14.741Z,98664.69
2022-10-05T13:30:08.771Z,98654.34
2022-10-05T13:33:08.356Z,98656.84
2022-10-05T13:36:04.734Z,98656.59
2022-10-05T13:39:00.546Z,98651.56
2022-10-05T13:41:56.575Z,98653.91
2022-10-05T13:44:51.708Z,98651.28
2022-10-05T13:47:54.169Z,98643.78
2022-10-05T13:50:47.448Z,98653.34
2022-10-05T13:53:44.159Z,98648.13
2022-10-05T13:56:34.619Z,98647.91
2022-10-05T13:59:31.763Z,98653.06
2022-10-05T14:02:23.963Z,98643.88
2022-10-05T14:05:19.520Z,98640.00
2022-10-05T14:08:21.281Z,98642.81
2022-10-05T14:11:33.505Z,98638.56
2022-10-05T14:14:28.252Z,98636.75
2022-10-05T14:17:18.702Z,98628.28
2022-10-05T14:20:25.129Z,98628.78
2022-10-05T14:23:25.224Z,98631.09
2022-10-05T14:26:21.131Z,98624.28
2022-10-05T14:29:21.300Z,98624.19
2022-10-05T14:32:16.768Z,98622.69
2022-10-05T14:35:16.916Z,98620.44
2022-10-05T14:38:18.343Z,98617.56
2022-10-05T14:41:18.357Z,98610.63
2022-10-05T14:44:28.003Z,98615.41
2022-10-05T14:47:26.188Z,98610.44
2022-10-05T14:50:18.968Z,98607.50
2022-10-05T14:53:17.853Z,98608.78
2022-10-05T14:56:19.451Z,98603.28
2022-10-05T14:59:50.553Z,98597.66
2022-10-05T15:03:01.007Z,98602.22
2022-10-05T15:05:53.366Z,98589.72
2022-10-05T15:08:51.144Z,98596.56
2022-10-05T15:11:49.716Z,98595.47
2022-10-05T15:14:42.176Z,98591.25
2022-10-05T15:17:37.883Z,98601.03
2022-10-05T15:20:35.937Z,98596.69
2022-10-05T15:23:33.933Z,98594.38
2022-10-05T15:26:36.156Z,98583.81
2022-10-05T15:29:51.904Z,98589.53
2022-10-05T15:33:06.059Z,98586.28
2022-10-05T15:36:06.533Z,98583.78
2022-10-05T15:39:02.970Z,98584.03
2022-10-05T15:42:08.345Z,98585.72
2022-10-05T15:45:07.881Z,98586.38
2022-10-05T15:48:04.076Z,98594.78
2022-10-05T15:51:01.476Z,98594.00
2022-10-05T15:54:28.599Z,98593.63
2022-10-05T15:57:25.639Z,98595.16
2022-10-05T16:00:15.553Z,98592.28
2022-10-05T16:03:14.723Z,98585.25
2022-10-05T16:06:27.690Z,98595.06
2022-10-05T16:09:29.608Z,98594.50
2022-10-05T16:12:50.256Z,98603.06
2022-10-05T16:15:43.579Z,98599.56
2022-10-05T16:18:54.938Z,98609.13
2022-10-05T16:21:54.093Z,98612.41
2022-10-05T16:24:59.190Z,98610.78
2022-10-05T16:28:07.392Z,98606.22
2022-10-05T16:31:14.696Z,98618.41
2022-10-05T16:34:18.965Z,98606.13
2022-10-05T16:37:19.390Z,98614.34
2022-10-05T16:40:20.300Z,98613.31
2022-10-05T16:43:25.670Z,98625.06
2022-10-05T16:46:32.930Z,98627.03
2022-10-05T16:49:39.948Z,98625.72
2022-10-05T16:52:30.634Z,98628.94
2022-10-05T16:55:30.251Z,98635.44
2022-10-05T16:58:27.894Z,98632.38
2022-10-05T17:01:41.902Z,98641.78
2022-10-05T17:04:54.396Z,98643.72
2022-10-05T17:08:12.204Z,98650.38
2022-10-05T17:11:29.763Z,98649.97
2022-10-05T17:14:49.046Z,98650.38
2022-10-05T17:17:59.272Z,98657.38
2022-10-05T17:21:02.462Z,98659.44
2022-10-05T17:24:27.892Z,98668.53
2022-10-05T17:27:52.441Z,98668.06
2022-10-05T17:31:27.311Z,98674.41
2022-10-05T17:34:35.981Z,98675.94
2022-10-05T17:37:57.875Z,98682.13
2022-10-05T17:41:20.647Z,98681.59
2022-10-05T17:44:42.400Z,98684.22
2022-10-05T17:47:57.425Z,98685.34
2022-10-05T17:51:16.239Z,98692.31
2022-10-05T17:54:39.904Z,98687.00
2022-10-05T17:57:41.945Z,98693.75
2022-10-05T18:01:06.898Z,98700.91
2022-10-05T18:03:54.411Z,98692.38
2022-10-05T18:07:00.966Z,98694.59
2022-10-05T18:10:00.709Z,98698.50
2022-10-05T18:13:12.619Z,98700.69
2022-10-05T18:16:00.262Z,98700.03
2022-10-05T18:18:59.365Z,98711.13
2022-10-05T18:22:04.451Z,98713.13
2022-10-05T18:25:05.893Z,98718.44
2022-10-05T18:28:19.527Z,98717.97
2022-10-05T18:31:28.071Z,98720.81
2022-10-05T18:34:32.468Z,98723.81
2022-10-05T18:37:38.896Z,98727.47
2022-10-05T18:40:43.324Z,98717.75
2022-10-05T18:43:42.674Z,98726.63
2022-10-05T18:46:47.914Z,98723.06
2022-10-05T18:49:52.752Z,98726.41
2022-10-05T18:53:09.206Z,98743.44
2022-10-05T18:56:05.149Z,98743.22
2022-10-05T18:59:18.339Z,98740.53
2022-10-05T19:02:20.684Z,98743.00
2022-10-05T19:05:46.541Z,98751.66
2022-10-05T19:08:46.220Z,98754.81
2022-10-05T19:11:51.110Z,98759.94
2022-10-05T19:14:53.824Z,98761.38
2022-10-05T19:18:04.457Z,98762.88
2022-10-05T19:21:05.707Z,98764.19
2022-10-05T19:24:45.839Z,98759.47
2022-10-05T19:27:49.790Z,98769.66
2022-10-05T19:31:21.327Z,98772.78
2022-10-05T19:34:30.534Z,98778.91
2022-10-05T19:37:31.981Z,98790.03
2022-10-05T19:40:31.475Z,98797.00
2022-10-05T19:43:52.490Z,98800.28
2022-10-05T19:46:56.934Z,98813.22
2022-10-05T19:49:57.736Z,98814.00
2022-10-05T19:52:50.018Z,98809.13
2022-10-05T19:55:41.511Z,98827.44
2022-10-05T19:58:33.259Z,98826.22
2022-10-05T20:01:30.873Z,98833.13
2022-10-05T20:04:35.019Z,98832.91
2022-10-05T20:07:23.314Z,98840.50
2022-10-05T20:10:29.204Z,98841.81
2022-10-05T20:13:22.920Z,98853.06
2022-10-05T20:16:39.077Z,98855.38
2022-10-05T20:19:54.778Z,98862.25
2022-10-05T20:22:47.111Z,98861.88
2022-10-05T20:25:40.342Z,98871.31
2022-10-05T20:28:33.040Z,98867.34
2022-10-05T20:31:21.296Z,98871.59
2022-10-05T20:34:08.826Z,98879.22
2022-10-05T20:36:57.869Z,98883.28
2022-10-05T20:39:47.202Z,98890.75
2022-10-05T20:42:34.755Z,98887.66
2022-10-05T20:45:23.129Z,98889.94
2022-10-05T20:48:11.023Z,98895.84
2022-10-05T20:50:58.459Z,98898.94
2022-10-05T20:53:47.396Z,98907.34
2022-10-05T20:56:35.960Z,98904.28
2022-10-05T20:59:24.876Z,98906.56
2022-10-05T21:02:12.568Z,98919.44
2022-10-05T21:05:00.184Z,98918.91
2022-10-05T21:07:47.948Z,98925.59
2022-10-05T21:10:38.084Z,98923.22
2022-10-05T21:13:26.601Z,98925.50
2022-10-05T21:16:18.364Z,98937.41
2022-10-05T21:19:09.335Z,98932.38
2022-10-05T21:21:58.044Z,98937.25
2022-10-05T21:24:45.782Z,98944.66
2022-10-05T21:27:34.860Z,98954.75
2022-10-05T21:30:22.253Z,98950.84
2022-10-05T21:33:09.808Z,98951.94
2022-10-05T21:35:57.392Z,98954.34
2022-10-05T21:38:45.738Z,98966.06
2022-10-05T21:41:33.371Z,98963.72
2022-10-05T21:44:22.218Z,98969.31
2022-10-05T21:47:10.318Z,98985.66
2022-10-05T21:49:58.014Z,98992.06
2022-10-05T21:52:45.538Z,98987.16
2022-10-05T21:55:36.734Z,98990.94
2022-10-05T21:58:28.262Z,98996.66
2022-10-05T22:01:22.372Z,98999.47
2022-10-05T22:04:10.337Z,99004.09
2022-10-05T22:06:58.143Z,98998.78
2022-10-05T22:09:46.607Z,99007.69
2022-10-05T22:12:34.624Z,99009.53
2022-10-05T22:15:22.556Z,99010.09
2022-10-05T22:18:19.004Z,99006.47
2022-10-05T22:21:09.019Z,99019.75
2022-10-05T22:23:56.522Z,99027.72
2022-10-05T22:26:48.798Z,99033.88
2022-10-05T22:29:37.212Z,99033.88
2022-10-05T22:32:24.724Z,99040.63
2022-10-05T22:35:13.399Z,99047.31
2022-10-05T22:38:00.776Z,99043.94
2022-10-05T22:40:50.219Z,99047.47
2022-10-05T22:43:37.558Z,99050.66
2022-10-05T22:46:25.235Z,99056.78
2022-10-05T22:49:12.765Z,99066.22
2022-10-05T22:52:01.583Z,99057.53
2022-10-05T22:54:49.146Z,99065.09
2022-10-05T22:57:41.222Z,99061.97
2022-10-05T23:00:53.386Z,99065.63
2022-10-05T23:03:37.933Z,99056.38
2022-10-05T23:06:26.625Z,99057.47
2022-10-05T23:09:16.220Z,99060.38
2022-10-05T23:12:03.761Z,99069.19
2022-10-05T23:14:51.258Z,99065.00
2022-10-05T23:17:40.470Z,99060.78
2022-10-05T23:20:28.244Z,99064.69
2022-10-05T23:23:15.758Z,99057.81
2022-10-05T23:26:05.798Z,99059.06
2022-10-05T23:28:53.535Z,99066.56
2022-10-05T23:31:41.281Z,99067.81
2022-10-05T23:34:28.879Z,99069.88
2022-10-05T23:37:17.723Z,99065.69
2022-10-05T23:40:07.437Z,99067.75
2022-10-05T23:42:56.450Z,99063.53
2022-10-05T23:45:45.939Z,99069.38
2022-10-05T23:48:34.099Z,99081.09
2022-10-05T23:51:21.512Z,99085.69
2022-10-05T23:54:08.708Z,99076.44
2022-10-05T23:56:56.235Z,99085.38
2022-10-05T23:59:45.221Z,99085.75
